sensor_id;sensor_type;location;lat;lon;timestamp;P1;P2;P0
74430;PMS7003;62863;52.062;23.764;2023-12-28T00:01:47;14.2;11.8;8.4
74430;PMS7003;62863;52.062;23.764;2023-12-28T00:07:19;15.3;12.8;8.3
74430;PMS7003;62863;52.062;23.764;2023-12-28T00:11:53;12.8;12;8.8
74430;PMS7003;62863;52.062;23.764;2023-12-28T00:16:57;16.4;12.8;8.8
74430;PMS7003;62863;52.062;23.764;2023-12-28T00:21:57;17;13;9
74430;PMS7003;62863;52.062;23.764;2023-12-28T00:27:21;12.4;12;9
74430;PMS7003;62863;52.062;23.764;2023-12-28T00:32:17;15;12.2;7.8
74430;PMS7003;62863;52.062;23.764;2023-12-28T00:36:57;15;12;8.2
74430;PMS7003;62863;52.062;23.764;2023-12-28T00:41:57;13;12.4;9.2
74430;PMS7003;62863;52.062;23.764;2023-12-28T00:47:17;15.2;11.8;9
74430;PMS7003;62863;52.062;23.764;2023-12-28T00:52:21;14.6;12.8;9
74430;PMS7003;62863;52.062;23.764;2023-12-28T00:56:37;18;12;8.6
74430;PMS7003;62863;52.062;23.764;2023-12-28T01:02:21;17.6;13.4;9
74430;PMS7003;62863;52.062;23.764;2023-12-28T01:07:07;16.3;14;10.3
74430;PMS7003;62863;52.062;23.764;2023-12-28T01:12:03;16;14.8;9.8
74430;PMS7003;62863;52.062;23.764;2023-12-28T01:16:37;17.8;14;10
74430;PMS7003;62863;52.062;23.764;2023-12-28T01:21:57;18.4;14.2;9.8
74430;PMS7003;62863;52.062;23.764;2023-12-28T01:27:17;13.8;13.2;11
74430;PMS7003;62863;52.062;23.764;2023-12-28T01:31:55;17.4;14.4;9.8
74430;PMS7003;62863;52.062;23.764;2023-12-28T01:36:37;18.6;14.6;9.8
74430;PMS7003;62863;52.062;23.764;2023-12-28T01:42:21;15.8;14;8.8
74430;PMS7003;62863;52.062;23.764;2023-12-28T01:46:57;17.4;15;11.4
74430;PMS7003;62863;52.062;23.764;2023-12-28T01:51:37;21.2;17.4;11
74430;PMS7003;62863;52.062;23.764;2023-12-28T01:56:37;18.8;16.2;11
74430;PMS7003;62863;52.062;23.764;2023-12-28T02:02:07;21.2;17.8;11.8
74430;PMS7003;62863;52.062;23.764;2023-12-28T02:06:37;19.3;17.3;11.3
74430;PMS7003;62863;52.062;23.764;2023-12-28T02:11:47;18.8;14.6;11.4
74430;PMS7003;62863;52.062;23.764;2023-12-28T02:17:19;21.8;15.6;11.2
74430;PMS7003;62863;52.062;23.764;2023-12-28T02:22:07;20.2;16.4;11.2
74430;PMS7003;62863;52.062;23.764;2023-12-28T02:26:51;14.6;13.2;10.2
74430;PMS7003;62863;52.062;23.764;2023-12-28T02:31:37;23;18.6;12
74430;PMS7003;62863;52.062;23.764;2023-12-28T02:36:59;27.4;23;16.6
74430;PMS7003;62863;52.062;23.764;2023-12-28T02:41:37;43.4;38.4;27.4
74430;PMS7003;62863;52.062;23.764;2023-12-28T02:47:17;37.4;33.2;22.8
74430;PMS7003;62863;52.062;23.764;2023-12-28T02:51:57;17.4;13.8;10
74430;PMS7003;62863;52.062;23.764;2023-12-28T02:56:57;18;15.2;10.6
74430;PMS7003;62863;52.062;23.764;2023-12-28T03:02:21;18.2;13.2;8.8
74430;PMS7003;62863;52.062;23.764;2023-12-28T03:07:09;22.8;17.8;12.3
74430;PMS7003;62863;52.062;23.764;2023-12-28T03:11:37;20.2;15.2;11
74430;PMS7003;62863;52.062;23.764;2023-12-28T03:17:09;19.4;16;11
74430;PMS7003;62863;52.062;23.764;2023-12-28T03:22:21;20.2;18.4;12.8
74430;PMS7003;62863;52.062;23.764;2023-12-28T03:27:19;30.6;26;18
74430;PMS7003;62863;52.062;23.764;2023-12-28T03:32:21;36.4;32.2;21.2
74430;PMS7003;62863;52.062;23.764;2023-12-28T03:37:07;34.4;28.2;19.4
74430;PMS7003;62863;52.062;23.764;2023-12-28T03:41:37;47.2;40.8;26.6
74430;PMS7003;62863;52.062;23.764;2023-12-28T03:46:37;44.2;36.4;24.6
74430;PMS7003;62863;52.062;23.764;2023-12-28T03:51:48;24.4;22.4;16
74430;PMS7003;62863;52.062;23.764;2023-12-28T03:57:17;18;16.8;11
74430;PMS7003;62863;52.062;23.764;2023-12-28T04:02:07;49;38.8;24.6
74430;PMS7003;62863;52.062;23.764;2023-12-28T04:07:11;48.8;40;27
74430;PMS7003;62863;52.062;23.764;2023-12-28T04:12:21;91.3;67.5;44
74430;PMS7003;62863;52.062;23.764;2023-12-28T04:17:07;90.2;67.8;42.2
74430;PMS7003;62863;52.062;23.764;2023-12-28T04:21:57;70.4;56.4;36.8
74430;PMS7003;62863;52.062;23.764;2023-12-28T04:27:01;41.4;33.2;20.6
74430;PMS7003;62863;52.062;23.764;2023-12-28T04:32:17;23.4;21.4;16.2
74430;PMS7003;62863;52.062;23.764;2023-12-28T04:37:03;20.8;17.4;12.6
74430;PMS7003;62863;52.062;23.764;2023-12-28T04:41:39;19;17.4;12.6
74430;PMS7003;62863;52.062;23.764;2023-12-28T04:46:57;17;12.8;10.4
74430;PMS7003;62863;52.062;23.764;2023-12-28T04:51:41;19;16.4;11
74430;PMS7003;62863;52.062;23.764;2023-12-28T04:57:21;19.8;14.8;10.2
74430;PMS7003;62863;52.062;23.764;2023-12-28T05:02:03;19.2;15.6;12
74430;PMS7003;62863;52.062;23.764;2023-12-28T05:06:43;20.8;17.8;11.8
74430;PMS7003;62863;52.062;23.764;2023-12-28T05:12:03;28;22.8;15
74430;PMS7003;62863;52.062;23.764;2023-12-28T05:17:21;25.6;22.2;14.6
74430;PMS7003;62863;52.062;23.764;2023-12-28T05:21:37;29.4;22.2;14.2
74430;PMS7003;62863;52.062;23.764;2023-12-28T05:26:37;22.6;19.2;13.2
74430;PMS7003;62863;52.062;23.764;2023-12-28T05:31:39;28;20.8;14
74430;PMS7003;62863;52.062;23.764;2023-12-28T05:37:07;23.6;21.2;14.2
74430;PMS7003;62863;52.062;23.764;2023-12-28T05:41:45;22.4;17.6;12.4
74430;PMS7003;62863;52.062;23.764;2023-12-28T05:46:57;17.2;15.2;11.2
74430;PMS7003;62863;52.062;23.764;2023-12-28T05:52:21;21.8;16.8;11.8
74430;PMS7003;62863;52.062;23.764;2023-12-28T05:56:53;20.2;15.4;11
74430;PMS7003;62863;52.062;23.764;2023-12-28T06:01:41;20.8;15.6;11.6
74430;PMS7003;62863;52.062;23.764;2023-12-28T06:07:19;23.2;18.6;12.2
74430;PMS7003;62863;52.062;23.764;2023-12-28T06:12:03;22.3;17.5;12.8
74430;PMS7003;62863;52.062;23.764;2023-12-28T06:16:37;17.6;16.2;11.6
74430;PMS7003;62863;52.062;23.764;2023-12-28T06:21:37;18.4;16.6;10.8
74430;PMS7003;62863;52.062;23.764;2023-12-28T06:27:07;17.6;15.8;11.8
74430;PMS7003;62863;52.062;23.764;2023-12-28T06:31:55;20.8;16.6;11.6
74430;PMS7003;62863;52.062;23.764;2023-12-28T06:36:55;74.4;59.8;36.8
74430;PMS7003;62863;52.062;23.764;2023-12-28T06:42:17;46;36;23.8
74430;PMS7003;62863;52.062;23.764;2023-12-28T06:47:05;51.8;41;27.8
74430;PMS7003;62863;52.062;23.764;2023-12-28T06:51:37;52;40.6;26.4
74430;PMS7003;62863;52.062;23.764;2023-12-28T06:56:37;33.6;27;17.4
74430;PMS7003;62863;52.062;23.764;2023-12-28T07:01:55;45;37;24.4
74430;PMS7003;62863;52.062;23.764;2023-12-28T07:06:37;69;56;36.8
74430;PMS7003;62863;52.062;23.764;2023-12-28T07:12:21;90.4;67.6;42
74430;PMS7003;62863;52.062;23.764;2023-12-28T07:16:45;73.8;60;36.4
74430;PMS7003;62863;52.062;23.764;2023-12-28T07:22:07;45.8;37;22.6
74430;PMS7003;62863;52.062;23.764;2023-12-28T07:27:19;51.2;44.8;31.4
74430;PMS7003;62863;52.062;23.764;2023-12-28T07:31:39;45;38.8;28
74430;PMS7003;62863;52.062;23.764;2023-12-28T07:36:49;28.6;26.6;18
74430;PMS7003;62863;52.062;23.764;2023-12-28T07:41:47;14.4;12.2;8.6
74430;PMS7003;62863;52.062;23.764;2023-12-28T07:47:19;15.8;12.8;10.2
74430;PMS7003;62863;52.062;23.764;2023-12-28T07:52:19;19;15.4;9.8
74430;PMS7003;62863;52.062;23.764;2023-12-28T07:56:55;14.6;12.4;9.4
74430;PMS7003;62863;52.062;23.764;2023-12-28T08:02:21;20.6;17.2;12.4
74430;PMS7003;62863;52.062;23.764;2023-12-28T08:06:37;112.3;94.3;58.3
74430;PMS7003;62863;52.062;23.764;2023-12-28T08:12:21;51.4;41;27.4
74430;PMS7003;62863;52.062;23.764;2023-12-28T08:17:09;32.4;28.2;21
74430;PMS7003;62863;52.062;23.764;2023-12-28T08:22:19;28;24.4;17.4
74430;PMS7003;62863;52.062;23.764;2023-12-28T08:26:57;38.2;33.8;23.2
74430;PMS7003;62863;52.062;23.764;2023-12-28T08:31:39;25.2;21.8;14.8
74430;PMS7003;62863;52.062;23.764;2023-12-28T08:37:21;17.6;15.2;10.2
74430;PMS7003;62863;52.062;23.764;2023-12-28T08:41:37;18;14.6;10.6
74430;PMS7003;62863;52.062;23.764;2023-12-28T08:46:37;23.4;18.8;13.6
74430;PMS7003;62863;52.062;23.764;2023-12-28T08:51:57;26.8;22.6;15.4
74430;PMS7003;62863;52.062;23.764;2023-12-28T08:57:21;30.5;27;20.3
74430;PMS7003;62863;52.062;23.764;2023-12-28T09:01:39;29.3;25;17.5
74430;PMS7003;62863;52.062;23.764;2023-12-28T09:07:09;33.7;26.7;18.7
74430;PMS7003;62863;52.062;23.764;2023-12-28T09:11:43;22.2;20.8;14.6
74430;PMS7003;62863;52.062;23.764;2023-12-28T09:16:43;24;20.3;13
74430;PMS7003;62863;52.062;23.764;2023-12-28T09:22:03;19.2;15.8;11.2
74430;PMS7003;62863;52.062;23.764;2023-12-28T09:26:55;19.4;15.6;10.8
74430;PMS7003;62863;52.062;23.764;2023-12-28T09:32:07;17.6;13.4;10
74430;PMS7003;62863;52.062;23.764;2023-12-28T09:36:39;15.6;14.8;10
74430;PMS7003;62863;52.062;23.764;2023-12-28T09:42:23;16.4;13.4;9
74430;PMS7003;62863;52.062;23.764;2023-12-28T09:46:49;16.3;16;12
74430;PMS7003;62863;52.062;23.764;2023-12-28T09:51:59;19.6;16.4;12.2
74430;PMS7003;62863;52.062;23.764;2023-12-28T09:56:57;23.4;19.2;12.6
74430;PMS7003;62863;52.062;23.764;2023-12-28T10:01:55;22.2;18.8;12.2
74430;PMS7003;62863;52.062;23.764;2023-12-28T10:06:45;20;16.5;11.8
74430;PMS7003;62863;52.062;23.764;2023-12-28T10:11:37;25.2;21.4;14.8
74430;PMS7003;62863;52.062;23.764;2023-12-28T10:17:17;23.6;18.4;13
74430;PMS7003;62863;52.062;23.764;2023-12-28T10:21:55;20;16.2;11.4
74430;PMS7003;62863;52.062;23.764;2023-12-28T10:26:49;18.8;15.4;11
74430;PMS7003;62863;52.062;23.764;2023-12-28T10:32:19;28;23.8;16.4
74430;PMS7003;62863;52.062;23.764;2023-12-28T10:36:45;26.4;24.4;16.8
74430;PMS7003;62863;52.062;23.764;2023-12-28T10:42:24;24.2;20.6;14
74430;PMS7003;62863;52.062;23.764;2023-12-28T10:47:10;24.5;21.3;14.5
74430;PMS7003;62863;52.062;23.764;2023-12-28T10:52:05;23.6;19.8;13.8
74430;PMS7003;62863;52.062;23.764;2023-12-28T10:56:46;22.4;19.2;12.6
74430;PMS7003;62863;52.062;23.764;2023-12-28T11:02:00;22;18.6;13.4
74430;PMS7003;62863;52.062;23.764;2023-12-28T11:07:19;22.8;19.2;13.8
74430;PMS7003;62863;52.062;23.764;2023-12-28T11:12:07;20.6;17.6;12.8
74430;PMS7003;62863;52.062;23.764;2023-12-28T11:16:37;20.6;17.4;12.6
74430;PMS7003;62863;52.062;23.764;2023-12-28T11:22:08;20.4;19.2;14.2
74430;PMS7003;62863;52.062;23.764;2023-12-28T11:26:57;30.2;26;18.2
74430;PMS7003;62863;52.062;23.764;2023-12-28T11:31:37;35.4;29.2;20.2
74430;PMS7003;62863;52.062;23.764;2023-12-28T11:36:38;38.6;31.4;21.4
74430;PMS7003;62863;52.062;23.764;2023-12-28T11:42:00;30;26.2;17.8
74430;PMS7003;62863;52.062;23.764;2023-12-28T11:46:55;29.5;27;18.8
74430;PMS7003;62863;52.062;23.764;2023-12-28T11:52:09;32.6;28.2;20.4
74430;PMS7003;62863;52.062;23.764;2023-12-28T11:57:09;32.2;28.8;20.6
74430;PMS7003;62863;52.062;23.764;2023-12-28T12:01:55;34.2;31;22.6
74430;PMS7003;62863;52.062;23.764;2023-12-28T12:07:07;29.2;25.2;18.4
74430;PMS7003;62863;52.062;23.764;2023-12-28T12:12:19;25.8;22.8;16.4
74430;PMS7003;62863;52.062;23.764;2023-12-28T12:17:17;31.6;27.8;19.4
74430;PMS7003;62863;52.062;23.764;2023-12-28T12:22:17;25.8;23.6;16.8
74430;PMS7003;62863;52.062;23.764;2023-12-28T12:27:05;28.4;22.2;15.8
74430;PMS7003;62863;52.062;23.764;2023-12-28T12:31:46;30;24.6;17.8
74430;PMS7003;62863;52.062;23.764;2023-12-28T12:36:47;28.4;24.4;17
74430;PMS7003;62863;52.062;23.764;2023-12-28T12:42:17;33.6;28.4;19.8
74430;PMS7003;62863;52.062;23.764;2023-12-28T12:47:17;34.5;29.5;20.5
74430;PMS7003;62863;52.062;23.764;2023-12-28T12:52:03;25.4;23;16.4
74430;PMS7003;62863;52.062;23.764;2023-12-28T12:56:59;32.4;27.2;17.6
74430;PMS7003;62863;52.062;23.764;2023-12-28T13:02:22;37;35;23.8
74430;PMS7003;62863;52.062;23.764;2023-12-28T13:06:37;38.2;33.6;23
74430;PMS7003;62863;52.062;23.764;2023-12-28T13:11:37;39.6;35.2;23.8
74430;PMS7003;62863;52.062;23.764;2023-12-28T13:16:47;38.6;34.4;24
74430;PMS7003;62863;52.062;23.764;2023-12-28T13:22:19;36.8;33.4;22.2
74430;PMS7003;62863;52.062;23.764;2023-12-28T13:27:03;34;30.4;20.2
74430;PMS7003;62863;52.062;23.764;2023-12-28T13:32:07;32.2;27.4;19.8
74430;PMS7003;62863;52.062;23.764;2023-12-28T13:36:55;34.8;30.6;21.2
74430;PMS7003;62863;52.062;23.764;2023-12-28T13:41:55;37.4;34;23.6
74430;PMS7003;62863;52.062;23.764;2023-12-28T13:47:17;33.4;30.6;19.8
74430;PMS7003;62863;52.062;23.764;2023-12-28T13:51:43;35.5;29.3;21
74430;PMS7003;62863;52.062;23.764;2023-12-28T13:56:45;35.8;30.8;19.8
74430;PMS7003;62863;52.062;23.764;2023-12-28T14:01:43;32.6;28.2;19.2
74430;PMS7003;62863;52.062;23.764;2023-12-28T14:07:17;29;25.4;17
74430;PMS7003;62863;52.062;23.764;2023-12-28T14:11:53;30;26.4;18.6
74430;PMS7003;62863;52.062;23.764;2023-12-28T14:16:45;29.8;27;18.6
74430;PMS7003;62863;52.062;23.764;2023-12-28T14:22:03;29.4;26;19
74430;PMS7003;62863;52.062;23.764;2023-12-28T14:26:55;31.2;27.2;19.4
74430;PMS7003;62863;52.062;23.764;2023-12-28T14:32:03;27.4;25;17.6
74430;PMS7003;62863;52.062;23.764;2023-12-28T14:37:07;27.6;22.8;15.8
74430;PMS7003;62863;52.062;23.764;2023-12-28T14:42:17;26.4;23.4;16
74430;PMS7003;62863;52.062;23.764;2023-12-28T14:46:45;31.2;26.2;19.2
74430;PMS7003;62863;52.062;23.764;2023-12-28T14:51:43;33.8;27.8;19.5
74430;PMS7003;62863;52.062;23.764;2023-12-28T14:57:19;28.4;23.4;17.2
74430;PMS7003;62863;52.062;23.764;2023-12-28T15:02:05;25.6;21.2;15.8
74430;PMS7003;62863;52.062;23.764;2023-12-28T15:06:43;28.8;25.6;16.8
74430;PMS7003;62863;52.062;23.764;2023-12-28T15:11:43;36.6;30;20.2
74430;PMS7003;62863;52.062;23.764;2023-12-28T15:17:05;36.8;30.4;20.4
74430;PMS7003;62863;52.062;23.764;2023-12-28T15:22:09;40;34.6;22
74430;PMS7003;62863;52.062;23.764;2023-12-28T15:26:37;36;30;20.2
74430;PMS7003;62863;52.062;23.764;2023-12-28T15:32:21;37.8;33;22.8
74430;PMS7003;62863;52.062;23.764;2023-12-28T15:36:51;29.2;25;16.6
74430;PMS7003;62863;52.062;23.764;2023-12-28T15:41:37;26;21.6;16.2
74430;PMS7003;62863;52.062;23.764;2023-12-28T15:46:55;23;22.2;14.8
74430;PMS7003;62863;52.062;23.764;2023-12-28T15:51:37;29;24;15.5
74430;PMS7003;62863;52.062;23.764;2023-12-28T15:56:51;27.6;24.4;17.2
74430;PMS7003;62863;52.062;23.764;2023-12-28T16:01:45;25.6;23.6;16
74430;PMS7003;62863;52.062;23.764;2023-12-28T16:07:11;20.4;18.6;13.4
74430;PMS7003;62863;52.062;23.764;2023-12-28T16:11:39;21.6;20;14
74430;PMS7003;62863;52.062;23.764;2023-12-28T16:16:39;20.8;17;12
74430;PMS7003;62863;52.062;23.764;2023-12-28T16:21:47;21.6;18;12.6
74430;PMS7003;62863;52.062;23.764;2023-12-28T16:26:57;23;18.4;13
74430;PMS7003;62863;52.062;23.764;2023-12-28T16:31:43;25.3;21.3;15.3
74430;PMS7003;62863;52.062;23.764;2023-12-28T16:37:19;26.6;22.4;15.2
74430;PMS7003;62863;52.062;23.764;2023-12-28T16:42:21;24.2;20.2;14.4
74430;PMS7003;62863;52.062;23.764;2023-12-28T16:47:17;24.6;20.2;15.6
74430;PMS7003;62863;52.062;23.764;2023-12-28T16:52:21;26.6;21.4;15.2
74430;PMS7003;62863;52.062;23.764;2023-12-28T16:56:37;23.4;20.6;15
74430;PMS7003;62863;52.062;23.764;2023-12-28T17:01:37;22.4;19.8;15
74430;PMS7003;62863;52.062;23.764;2023-12-28T17:07:11;27.4;22.8;16.2
74430;PMS7003;62863;52.062;23.764;2023-12-28T17:12:22;37.8;31;20.4
74430;PMS7003;62863;52.062;23.764;2023-12-28T17:16:55;39.6;35;24.8
74430;PMS7003;62863;52.062;23.764;2023-12-28T17:22:09;44;38;24.3
74430;PMS7003;62863;52.062;23.764;2023-12-28T17:27:22;35.2;31;19.6
74430;PMS7003;62863;52.062;23.764;2023-12-28T17:31:59;32.2;28;19
74430;PMS7003;62863;52.062;23.764;2023-12-28T17:36:37;24.4;22.8;16.6
74430;PMS7003;62863;52.062;23.764;2023-12-28T17:41:57;25.2;20.6;14.6
74430;PMS7003;62863;52.062;23.764;2023-12-28T17:47:23;22.8;19.4;14.4
74430;PMS7003;62863;52.062;23.764;2023-12-28T17:51:54;20;18.2;13.4
74430;PMS7003;62863;52.062;23.764;2023-12-28T17:57:19;20.6;17.4;13.2
74430;PMS7003;62863;52.062;23.764;2023-12-28T18:02:11;19.6;17.2;12.2
74430;PMS7003;62863;52.062;23.764;2023-12-28T18:06:37;21;18.6;14.4
74430;PMS7003;62863;52.062;23.764;2023-12-28T18:12:21;17.6;16.8;12.6
74430;PMS7003;62863;52.062;23.764;2023-12-28T18:16:37;19.2;15.6;12.2
74430;PMS7003;62863;52.062;23.764;2023-12-28T18:21:55;21;19;12.5
74430;PMS7003;62863;52.062;23.764;2023-12-28T18:26:53;24;21.2;13.8
74430;PMS7003;62863;52.062;23.764;2023-12-28T18:32:19;20.4;17.8;13.6
74430;PMS7003;62863;52.062;23.764;2023-12-28T18:36:37;22.2;20.4;14.4
74430;PMS7003;62863;52.062;23.764;2023-12-28T18:41:37;19.4;18.6;12.8
74430;PMS7003;62863;52.062;23.764;2023-12-28T18:46:55;25.6;20;14.8
74430;PMS7003;62863;52.062;23.764;2023-12-28T18:51:57;23.2;21;14.8
74430;PMS7003;62863;52.062;23.764;2023-12-28T18:56:43;26.6;22.6;17.2
74430;PMS7003;62863;52.062;23.764;2023-12-28T19:01:59;25.4;23.6;16.4
74430;PMS7003;62863;52.062;23.764;2023-12-28T19:07:19;28.4;24;16.6
74430;PMS7003;62863;52.062;23.764;2023-12-28T19:11:55;31.8;26.2;19.2
74430;PMS7003;62863;52.062;23.764;2023-12-28T19:16:46;27.2;24.2;17
74430;PMS7003;62863;52.062;23.764;2023-12-28T19:22:17;28.8;24;16.3
74430;PMS7003;62863;52.062;23.764;2023-12-28T19:27:05;35;28.6;18.6
74430;PMS7003;62863;52.062;23.764;2023-12-28T19:31:43;29.8;27;19.6
74430;PMS7003;62863;52.062;23.764;2023-12-28T19:36:37;33.8;30.5;22
74430;PMS7003;62863;52.062;23.764;2023-12-28T19:41:55;33;29.2;19.8
74430;PMS7003;62863;52.062;23.764;2023-12-28T19:47:07;33.6;30.8;20.4
74430;PMS7003;62863;52.062;23.764;2023-12-28T19:52:07;34;30.6;20.4
74430;PMS7003;62863;52.062;23.764;2023-12-28T19:57:17;34.2;30.6;21.2
74430;PMS7003;62863;52.062;23.764;2023-12-28T20:01:51;36.4;29.8;21.4
74430;PMS7003;62863;52.062;23.764;2023-12-28T20:06:45;32.4;30;19.4
74430;PMS7003;62863;52.062;23.764;2023-12-28T20:11:37;30.2;27.8;20.6
74430;PMS7003;62863;52.062;23.764;2023-12-28T20:16:57;31.2;27.8;19.8
74430;PMS7003;62863;52.062;23.764;2023-12-28T20:21:37;31.5;27;20.5
74430;PMS7003;62863;52.062;23.764;2023-12-28T20:26:53;32;28.2;19.8
74430;PMS7003;62863;52.062;23.764;2023-12-28T20:31:59;33.4;27.8;18.6
74430;PMS7003;62863;52.062;23.764;2023-12-28T20:37:05;28.4;25.8;18
74430;PMS7003;62863;52.062;23.764;2023-12-28T20:42:17;32;28.4;19
74430;PMS7003;62863;52.062;23.764;2023-12-28T20:46:39;31.4;28;19.8
74430;PMS7003;62863;52.062;23.764;2023-12-28T20:51:38;31.4;27.6;18.6
74430;PMS7003;62863;52.062;23.764;2023-12-28T20:56:45;28.4;24.8;17.4
74430;PMS7003;62863;52.062;23.764;2023-12-28T21:02:19;30.2;27;20
74430;PMS7003;62863;52.062;23.764;2023-12-28T21:07:19;32.8;27;18.8
74430;PMS7003;62863;52.062;23.764;2023-12-28T21:12:17;33.8;27.2;18.4
74430;PMS7003;62863;52.062;23.764;2023-12-28T21:17:17;33.4;27.2;19.4
74430;PMS7003;62863;52.062;23.764;2023-12-28T21:22:03;23.8;22.4;15.6
74430;PMS7003;62863;52.062;23.764;2023-12-28T21:27:05;26.8;23.8;17.3
74430;PMS7003;62863;52.062;23.764;2023-12-28T21:31:39;27.8;25.6;18
74430;PMS7003;62863;52.062;23.764;2023-12-28T21:37:07;23.6;22;14.8
74430;PMS7003;62863;52.062;23.764;2023-12-28T21:41:47;27.2;23.8;17
74430;PMS7003;62863;52.062;23.764;2023-12-28T21:46:55;26.6;22.8;15.8
74430;PMS7003;62863;52.062;23.764;2023-12-28T21:52:19;26.6;22.6;16.4
74430;PMS7003;62863;52.062;23.764;2023-12-28T21:56:55;27.8;23;16.4
74430;PMS7003;62863;52.062;23.764;2023-12-28T22:01:37;28.2;22.2;16.4
74430;PMS7003;62863;52.062;23.764;2023-12-28T22:06:47;28.6;26.2;18.2
74430;PMS7003;62863;52.062;23.764;2023-12-28T22:12:19;23.8;20.6;15.2
74430;PMS7003;62863;52.062;23.764;2023-12-28T22:17:01;24.6;20.2;14.4
74430;PMS7003;62863;52.062;23.764;2023-12-28T22:22:07;25.2;24.2;15.8
74430;PMS7003;62863;52.062;23.764;2023-12-28T22:26:49;28.5;23;15.5
74430;PMS7003;62863;52.062;23.764;2023-12-28T22:31:59;26;21.4;15
74430;PMS7003;62863;52.062;23.764;2023-12-28T22:37:19;28;24.6;17.6
74430;PMS7003;62863;52.062;23.764;2023-12-28T22:41:45;26.4;22.6;16
74430;PMS7003;62863;52.062;23.764;2023-12-28T22:46:51;29.2;25.4;16.8
74430;PMS7003;62863;52.062;23.764;2023-12-28T22:51:39;24.4;22.2;15.4
74430;PMS7003;62863;52.062;23.764;2023-12-28T22:57:17;29;24.8;17.6
74430;PMS7003;62863;52.062;23.764;2023-12-28T23:01:45;29.8;24;17
74430;PMS7003;62863;52.062;23.764;2023-12-28T23:06:43;29.4;27;18.2
74430;PMS7003;62863;52.062;23.764;2023-12-28T23:12:03;29.4;24.8;16.8
74430;PMS7003;62863;52.062;23.764;2023-12-28T23:16:37;29.2;25.2;18.6
74430;PMS7003;62863;52.062;23.764;2023-12-28T23:21:37;27;23.8;17.2
74430;PMS7003;62863;52.062;23.764;2023-12-28T23:26:52;31.5;26.8;17.8
74430;PMS7003;62863;52.062;23.764;2023-12-28T23:31:57;27.8;25;16.2
74430;PMS7003;62863;52.062;23.764;2023-12-28T23:36:45;30.2;26;17.4
74430;PMS7003;62863;52.062;23.764;2023-12-28T23:41:45;30;25.8;16.8
74430;PMS7003;62863;52.062;23.764;2023-12-28T23:47:21;26.8;24.8;17.2
74430;PMS7003;62863;52.062;23.764;2023-12-28T23:51:52;25.8;23.6;17
74430;PMS7003;62863;52.062;23.764;2023-12-28T23:56:37;25.8;23.8;16.2
